Time;durP1;ratioP1;P1;durP2;ratioP2;P2;SDS_P1;SDS_P2;PMS_P1;PMS_P2;Temp;Humidity;BMP_temperature;BMP_pressure;BME280_temperature;BME280_humidity;BME280_pressure;Samples;Min_cycle;Max_cycle;Signal;HPM_P1;HPM_P2
2021/08/03 00:00:55;;;;;;;90.03;51.50;;;;;;;15.39;78.03;101417.41;4961817;28;20507;-80
2021/08/03 00:03:47;;;;;;;164.87;92.33;;;;;;;15.53;78.57;101415.41;4996384;28;20453;-80
2021/08/03 00:06:20;;;;;;;83.57;55.50;;;;;;;15.87;78.53;101511.56;4999041;28;20453;-78
2021/08/03 00:08:57;;;;;;;196.17;112.20;;;;;;;15.62;77.66;101432.22;4997477;28;20490;-79
2021/08/03 00:11:36;;;;;;;106.03;66.43;;;;;;;16.25;77.09;101525.03;5001612;28;20491;-78
2021/08/03 00:14:10;;;;;;;89.07;63.30;;;;;;;16.12;76.86;101511.63;4993005;28;21209;-78
2021/08/03 00:16:40;;;;;;;39.90;27.77;;;;;;;15.67;79.05;101502.69;4989053;28;20441;-77
2021/08/03 00:19:16;;;;;;;68.37;49.30;;;;;;;15.50;79.70;101478.03;4993560;28;20442;-78
2021/08/03 00:21:46;;;;;;;272.83;148.20;;;;;;;15.42;78.58;101405.28;4994564;28;20478;-78
2021/08/03 00:24:12;;;;;;;95.33;51.43;;;;;;;16.01;78.15;101498.78;4992623;28;20506;-78
2021/08/03 00:26:43;;;;;;;112.83;66.03;;;;;;;16.02;78.40;101503.97;4995825;28;20442;-78
2021/08/03 00:29:17;;;;;;;114.63;72.13;;;;;;;15.85;79.81;101497.41;5000413;28;20208;-79
2021/08/03 00:31:52;;;;;;;167.93;90.03;;;;;;;16.14;79.20;101500.56;4995375;28;20460;-83
2021/08/03 00:34:24;;;;;;;327.20;184.67;;;;;;;15.58;80.70;101440.75;5015243;28;20509;-81
2021/08/03 00:37:04;;;;;;;270.63;165.97;;;;;;;16.03;80.30;101521.88;5006832;28;20444;-81
2021/08/03 00:39:45;;;;;;;324.37;184.73;;;;;;;15.37;80.77;101414.88;5010524;28;20450;-81
2021/08/03 00:42:49;;;;;;;335.63;189.07;;;;;;;15.75;82.02;101511.41;5020597;28;20437;-83
2021/08/03 00:46:28;;;;;;;344.60;204.43;;;;;;;15.94;81.81;101506.94;5004673;28;20441;-82
2021/08/03 00:48:41;;;;;;;177.13;108.80;;;;;;;15.42;83.01;101511.56;4993494;28;20482;-84
2021/08/03 00:52:05;;;;;;;325.30;220.17;;;;;;;15.05;84.66;101499.63;5003467;28;20459;-85
2021/08/03 00:55:00;;;;;;;;;;;;;;;;;;;;;
2021/08/03 00:57:54;;;;;;;293.67;181.90;;;;;;;15.15;84.96;101497.31;5004495;28;20476;-83
2021/08/03 01:00:37;;;;;;;340.27;207.20;;;;;;;15.52;83.06;101490.28;4992197;28;20473;-83
2021/08/03 01:11:29;;;;;;;380.97;228.43;;;;;;;15.57;84.30;101500.47;4979739;28;20497;-82
2021/08/03 01:19:06;;;;;;;;;;;;;;;;;;;;;
2021/08/03 01:25:26;;;;;;;201.73;119.73;;;;;;;15.50;83.69;101494.25;4822369;29;20683;-83
2021/08/03 01:28:51;;;;;;;317.43;188.50;;;;;;;15.73;82.47;101493.75;4828917;29;20433;-83
2021/08/03 01:32:01;;;;;;;196.57;108.50;;;;;;;15.79;82.07;101488.31;4866827;29;20476;-84
2021/08/03 01:39:11;;;;;;;178.13;110.30;;;;;;;15.79;81.62;101493.72;4964920;28;20421;-82
2021/08/03 01:41:37;;;;;;;135.40;73.63;;;;;;;15.62;82.29;101491.69;4885535;29;20492;-82
2021/08/03 01:44:51;;;;;;;;;;;;;;;;;;;;;
2021/08/03 01:51:57;;;;;;;146.80;87.63;;;;;;;15.53;83.16;101486.53;4953647;29;20517;-83
2021/08/03 01:59:19;;;;;;;174.60;93.93;;;;;;;15.59;84.10;101479.44;4859587;29;20555;-84
2021/08/03 02:02:07;;;;;;;105.40;61.63;;;;;;;15.47;84.90;101479.28;4967319;28;20985;-82
2021/08/03 02:05:08;;;;;;;208.10;118.43;;;;;;;14.52;85.97;101386.34;5009337;28;20481;-83
2021/08/03 02:07:55;;;;;;;245.07;131.43;;;;;;;15.21;85.61;101495.63;5014800;28;20516;-81
2021/08/03 02:10:42;;;;;;;261.37;158.73;;;;;;;15.07;86.41;101484.88;5010224;28;20522;-83
2021/08/03 02:13:50;;;;;;;210.10;120.27;;;;;;;14.35;88.10;101450.69;5015976;28;20452;-83
2021/08/03 02:16:43;;;;;;;377.73;210.27;;;;;;;12.14;86.06;101030.53;4990880;28;20444;-83
2021/08/03 02:19:36;;;;;;;228.13;131.53;;;;;;;14.96;86.55;101488.22;5001934;28;20536;-82
2021/08/03 02:22:24;;;;;;;140.13;77.27;;;;;;;14.86;86.16;101498.63;5004709;28;20516;-83
2021/08/03 02:25:54;;;;;;;236.70;149.97;;;;;;;15.26;85.27;101501.22;5023007;28;20432;-82
2021/08/03 02:28:44;;;;;;;226.90;114.43;;;;;;;15.09;85.35;101492.75;4994729;28;20491;-81
2021/08/03 02:39:32;;;;;;;;;;;;;;;;;;;;;
2021/08/03 02:42:25;;;;;;;141.73;81.10;;;;;;;15.35;83.51;101502.66;4958703;28;20478;-82
2021/08/03 02:45:44;;;;;;;;;;;;;;;;;;;;;
2021/08/03 02:49:28;;;;;;;217.53;115.40;;;;;;;15.17;83.89;101502.50;4963482;28;20475;-83
2021/08/03 02:52:18;;;;;;;161.70;89.13;;;;;;;15.31;83.52;101496.03;4955556;28;20482;-81
2021/08/03 02:55:38;;;;;;;50.53;35.13;;;;;;;15.30;83.26;101497.91;4988616;28;20830;-81
2021/08/03 03:05:13;;;;;;;121.07;70.33;;;;;;;15.09;83.20;101488.19;4966691;28;20466;-82
2021/08/03 03:11:35;;;;;;;142.10;84.80;;;;;;;15.23;83.64;101482.75;4967558;28;20467;-81
2021/08/03 03:14:44;;;;;;;74.60;45.20;;;;;;;14.98;83.92;101483.44;4940237;29;20442;-82
2021/08/03 03:23:50;;;;;;;139.17;78.30;;;;;;;15.16;82.84;101477.38;5002346;28;20452;-82
2021/08/03 03:26:59;;;;;;;89.30;60.50;;;;;;;14.94;84.55;101494.88;4990818;28;20523;-82
2021/08/03 03:33:04;;;;;;;62.33;39.07;;;;;;;14.99;83.23;101504.03;5004296;28;20455;-81
2021/08/03 03:36:04;;;;;;;136.53;83.17;;;;;;;15.04;82.53;101477.19;5014123;28;20432;-82
2021/08/03 03:54:06;;;;;;;37.10;23.13;;;;;;;15.00;82.69;101492.16;4825511;29;20469;-81
2021/08/03 04:04:01;;;;;;;75.83;43.63;;;;;;;14.85;81.63;101448.38;4795470;29;20442;-82
2021/08/03 04:14:54;;;;;;;;;;;;;;;;;;;;;
2021/08/03 04:25:52;;;;;;;;;;;;;;;;;;;;;
2021/08/03 04:29:29;;;;;;;76.10;41.83;;;;;;;15.10;81.67;101506.06;4894491;29;20457;-84
2021/08/03 04:32:54;;;;;;;;;;;;;;;;;;;;;
2021/08/03 04:36:28;;;;;;;3.70;3.37;;;;;;;14.92;82.81;101493.22;4833488;29;20602;-83
2021/08/03 04:47:04;;;;;;;8.87;6.57;;;;;;;14.76;82.65;101506.34;4716639;30;20516;-82
2021/08/03 04:53:20;;;;;;;16.37;12.70;;;;;;;14.67;83.74;101498.47;4735479;30;20514;-82
2021/08/03 04:56:10;;;;;;;53.97;32.57;;;;;;;13.44;81.29;101273.38;4719272;30;20474;-86
2021/08/03 05:06:36;;;;;;;266.73;178.73;;;;;;;14.76;81.98;101500.94;4848462;29;20462;-82
2021/08/03 05:09:04;;;;;;;204.83;130.87;;;;;;;14.05;81.76;101385.56;4895278;29;20474;-82
2021/08/03 05:12:18;;;;;;;245.37;154.63;;;;;;;14.81;81.81;101511.94;4917268;29;20456;-82
2021/08/03 05:15:08;;;;;;;196.77;123.33;;;;;;;14.78;80.66;101482.66;4985357;28;20432;-83
2021/08/03 05:25:23;;;;;;;91.43;62.00;;;;;;;14.64;81.05;101446.78;4990194;28;20449;-80
2021/08/03 05:27:59;;;;;;;121.80;75.87;;;;;;;14.89;81.59;101500.91;5007352;28;20433;-81
2021/08/03 05:31:17;;;;;;;;;;;;;;;;;;;;;
2021/08/03 05:33:56;;;;;;;96.67;60.77;;;;;;;14.66;81.94;101432.00;4915965;28;20476;-81
2021/08/03 05:39:53;;;;;;;342.90;214.00;;;;;;;15.34;80.89;101492.88;5007662;28;20412;-83
2021/08/03 05:52:18;;;;;;;164.67;102.07;;;;;;;15.32;81.15;101493.09;5005751;28;20464;-82
2021/08/03 05:55:17;;;;;;;219.20;134.13;;;;;;;15.30;80.68;101492.50;5005486;28;20487;-82
2021/08/03 05:58:23;;;;;;;157.87;104.33;;;;;;;14.81;80.74;101385.00;5005970;28;20516;-81
2021/08/03 06:01:55;;;;;;;157.53;95.97;;;;;;;15.46;80.23;101491.16;4994757;28;20461;-82
2021/08/03 06:11:49;;;;;;;92.27;57.00;;;;;;;15.53;80.10;101497.34;4970534;28;20558;-82
2021/08/03 06:15:12;;;;;;;;;;;;;;;;;;;;;
2021/08/03 06:22:14;;;;;;;;;;;;;;;;;;;;;
2021/08/03 06:28:39;;;;;;;112.50;62.47;;;;;;;15.80;78.61;101499.97;4978880;28;20472;-80
2021/08/03 06:31:42;;;;;;;181.70;103.33;;;;;;;15.94;78.98;101512.38;4948013;29;20487;-80
2021/08/03 06:34:40;;;;;;;105.70;64.23;;;;;;;16.01;78.97;101501.50;4953667;29;20483;-83
2021/08/03 06:44:29;;;;;;;128.40;80.53;;;;;;;15.55;77.11;101407.91;4981968;28;20441;-80
2021/08/03 06:47:04;;;;;;;147.17;86.63;;;;;;;15.96;79.31;101482.38;5003001;28;20441;-81
2021/08/03 06:49:51;;;;;;;124.23;73.10;;;;;;;15.64;78.75;101427.41;4999561;28;20444;-80
2021/08/03 06:52:22;;;;;;;131.63;81.27;;;;;;;15.68;77.28;101401.63;4997281;28;20441;-81
2021/08/03 06:55:05;;;;;;;131.00;85.63;;;;;;;16.21;77.85;101504.06;5004068;28;20431;-80
2021/08/03 06:57:36;;;;;;;95.97;59.27;;;;;;;16.23;78.78;101499.25;5001870;28;20453;-80
2021/08/03 07:00:06;;;;;;;123.00;72.83;;;;;;;16.25;77.02;101499.84;5011945;28;20555;-81
2021/08/03 07:02:41;;;;;;;156.43;89.83;;;;;;;16.31;77.78;101495.44;5003710;28;20464;-79
2021/08/03 07:05:18;;;;;;;147.90;96.47;;;;;;;16.21;77.12;101472.41;4996253;28;20447;-78
2021/08/03 07:07:46;;;;;;;52.20;33.83;;;;;;;15.91;76.22;101430.78;4997551;28;20443;-79
2021/08/03 07:10:14;;;;;;;68.73;38.13;;;;;;;16.08;77.38;101471.66;5000213;28;20463;-79
2021/08/03 07:12:45;;;;;;;75.40;49.70;;;;;;;15.80;75.81;101410.69;5007182;28;20442;-79
2021/08/03 07:15:14;;;;;;;89.60;56.37;;;;;;;16.40;77.45;101503.06;5010836;28;20441;-79
2021/08/03 07:17:47;;;;;;;97.63;59.10;;;;;;;16.24;74.60;101469.25;4992788;28;20512;-79
2021/08/03 07:20:17;;;;;;;63.60;38.83;;;;;;;16.33;75.80;101502.28;4989677;28;20481;-79
2021/08/03 07:22:53;;;;;;;20.83;14.97;;;;;;;16.32;73.64;101497.94;5003709;28;20942;-83
2021/08/03 07:25:32;;;;;;;57.83;36.30;;;;;;;16.43;75.17;101505.34;5012898;28;20436;-80
2021/08/03 07:27:58;;;;;;;50.33;31.30;;;;;;;16.33;76.14;101480.63;5012057;28;20436;-80
2021/08/03 07:30:27;;;;;;;79.47;46.77;;;;;;;15.83;75.39;101418.38;5012053;28;20475;-81
2021/08/03 07:32:52;;;;;;;32.43;20.70;;;;;;;15.33;74.10;101335.28;5003954;28;20658;-80
2021/08/03 07:35:18;;;;;;;35.60;22.03;;;;;;;16.53;70.81;101485.03;5000842;28;20446;-81
2021/08/03 07:37:44;;;;;;;7.40;3.63;;;;;;;16.86;70.27;101499.09;5005879;28;20185;-80
2021/08/03 07:40:09;;;;;;;10.30;8.93;;;;;;;16.56;68.30;101427.72;4999763;28;20217;-79
2021/08/03 07:42:38;;;;;;;3.03;1.73;;;;;;;16.64;69.08;101482.44;5002989;28;20182;-80
2021/08/03 07:45:04;;;;;;;3.40;2.90;;;;;;;16.16;69.53;101374.78;4997292;28;20181;-81
2021/08/03 07:47:32;;;;;;;2.73;1.87;;;;;;;16.73;70.41;101447.75;5003600;28;20436;-80
2021/08/03 07:49:58;;;;;;;1.43;1.23;;;;;;;15.73;69.09;101261.16;5003187;28;20467;-79
2021/08/03 07:52:26;;;;;;;1.73;1.30;;;;;;;16.90;67.50;101461.56;4994518;28;22366;-79
2021/08/03 07:54:52;;;;;;;2.73;1.13;;;;;;;16.91;69.29;101472.16;4999866;28;20182;-83
2021/08/03 07:57:18;;;;;;;5.33;2.33;;;;;;;16.96;67.86;101495.06;4997068;28;20504;-78
2021/08/03 07:59:43;;;;;;;2.37;1.00;;;;;;;16.89;68.43;101485.13;4992706;28;20193;-79
2021/08/03 08:02:12;;;;;;;1.23;0.90;;;;;;;16.55;67.33;101416.06;4995772;28;20198;-79
2021/08/03 08:04:37;;;;;;;3.10;2.30;;;;;;;16.73;68.31;101432.31;4991645;28;20191;-77
2021/08/03 08:07:03;;;;;;;0.90;0.70;;;;;;;16.68;68.28;101405.09;4994210;28;20532;-80
2021/08/03 08:09:32;;;;;;;1.10;0.90;;;;;;;16.60;66.53;101380.19;4995062;28;20190;-79
2021/08/03 08:12:01;;;;;;;2.53;1.60;;;;;;;17.16;68.89;101472.09;4996147;28;20689;-80
2021/08/03 08:14:34;;;;;;;1.90;1.73;;;;;;;16.87;71.19;101427.63;4995377;28;20464;-79
2021/08/03 08:17:03;;;;;;;2.87;1.67;;;;;;;16.53;69.13;101371.31;5000463;28;21048;-79
2021/08/03 08:19:28;;;;;;;1.20;1.10;;;;;;;17.06;69.71;101428.41;4994399;28;20456;-77
2021/08/03 08:21:56;;;;;;;2.73;1.07;;;;;;;16.68;70.22;101396.13;4999475;28;20477;-79
2021/08/03 08:24:22;;;;;;;3.40;2.23;;;;;;;17.22;71.55;101473.06;4994372;28;20198;-79
2021/08/03 08:26:48;;;;;;;7.07;3.60;;;;;;;17.05;70.75;101455.78;4994279;28;20450;-79
2021/08/03 08:29:16;;;;;;;4.50;2.33;;;;;;;17.21;69.91;101467.88;5000041;28;20190;-79
2021/08/03 08:31:45;;;;;;;2.47;2.07;;;;;;;16.70;72.14;101391.31;5001792;28;20988;-79
2021/08/03 08:34:12;;;;;;;4.03;3.00;;;;;;;16.98;72.20;101441.44;4995927;28;20480;-80
2021/08/03 08:36:38;;;;;;;2.90;2.70;;;;;;;16.62;73.83;101416.00;5000739;28;20453;-80
2021/08/03 08:39:08;;;;;;;6.67;5.73;;;;;;;17.10;73.48;101473.00;5009235;28;20437;-80
2021/08/03 08:41:34;;;;;;;6.23;5.40;;;;;;;16.48;75.25;101390.94;5010462;28;20256;-80
2021/08/03 08:44:04;;;;;;;28.77;19.60;;;;;;;16.88;71.23;101431.97;4993113;28;20945;-79
2021/08/03 08:46:37;;;;;;;3.90;3.13;;;;;;;17.01;71.77;101474.38;5006267;28;20954;-78
2021/08/03 08:49:04;;;;;;;3.00;2.50;;;;;;;16.41;72.24;101360.41;4992026;28;20464;-79
2021/08/03 08:51:30;;;;;;;11.23;6.83;;;;;;;17.25;70.85;101469.91;4990882;28;20458;-78
2021/08/03 08:54:00;;;;;;;18.47;14.50;;;;;;;16.04;70.49;101262.94;4993160;28;20473;-79
2021/08/03 08:56:28;;;;;;;8.93;6.10;;;;;;;17.53;70.03;101471.19;4991989;28;21008;-79
2021/08/03 08:58:54;;;;;;;19.87;12.63;;;;;;;17.10;71.66;101426.94;4989975;28;20510;-78
2021/08/03 09:01:28;;;;;;;5.13;4.67;;;;;;;17.10;69.09;101412.56;4988776;28;20480;-78
2021/08/03 09:04:00;;;;;;;8.37;4.87;;;;;;;17.00;69.37;101391.41;4997027;28;20189;-79
2021/08/03 09:06:25;;;;;;;6.13;5.73;;;;;;;17.07;68.25;101380.50;5000277;28;20465;-79
2021/08/03 09:08:53;;;;;;;12.30;9.17;;;;;;;17.69;68.30;101462.44;4991036;28;23160;-79
2021/08/03 09:11:21;;;;;;;2.00;1.90;;;;;;;17.46;69.31;101459.63;5006407;28;20201;-78
2021/08/03 09:13:49;;;;;;;6.87;6.20;;;;;;;17.60;67.88;101464.63;4988997;28;20453;-79
2021/08/03 09:16:15;;;;;;;6.10;5.13;;;;;;;17.50;68.74;101447.25;4988126;28;20503;-80
2021/08/03 09:18:44;;;;;;;4.67;3.67;;;;;;;17.73;67.20;101463.59;4987229;28;20460;-78
2021/08/03 09:21:28;;;;;;;1.83;1.67;;;;;;;17.75;66.36;101463.38;4991042;28;20214;-79
2021/08/03 09:24:00;;;;;;;3.03;2.50;;;;;;;17.72;66.00;101442.97;4992412;28;20794;-79
2021/08/03 09:26:39;;;;;;;3.37;2.40;;;;;;;17.86;68.41;101464.53;4984214;28;20452;-79
2021/08/03 09:29:08;;;;;;;2.23;1.70;;;;;;;17.66;69.79;101456.63;4990096;28;20540;-79
2021/08/03 09:31:35;;;;;;;3.30;3.07;;;;;;;17.70;65.08;101471.38;4987084;28;20533;-80
2021/08/03 09:34:12;;;;;;;4.33;3.97;;;;;;;17.69;67.34;101459.72;4990627;28;20433;-79
2021/08/03 09:36:48;;;;;;;2.73;2.50;;;;;;;17.67;63.87;101450.97;4988007;28;20448;-79
2021/08/03 09:39:39;;;;;;;1.03;1.00;;;;;;;17.84;62.46;101454.69;4990058;28;20440;-79
2021/08/03 09:42:17;;;;;;;1.13;1.00;;;;;;;17.82;64.67;101453.31;4990252;28;20456;-80
2021/08/03 09:44:52;;;;;;;1.10;0.70;;;;;;;17.89;59.58;101451.31;4988294;28;20448;-79
2021/08/03 09:47:23;;;;;;;0.60;0.60;;;;;;;18.18;58.83;101444.16;4987950;28;20469;-81
2021/08/03 09:49:51;;;;;;;0.73;0.73;;;;;;;18.23;60.18;101441.56;4986242;28;20446;-78
2021/08/03 09:52:22;;;;;;;2.60;0.83;;;;;;;18.41;62.22;101428.94;4984616;28;20468;-79
2021/08/03 09:54:48;;;;;;;1.30;0.97;;;;;;;18.40;59.79;101441.69;4988477;28;20492;-79
2021/08/03 09:57:21;;;;;;;1.20;1.20;;;;;;;18.49;59.91;101447.59;4995576;28;20955;-79
2021/08/03 09:59:47;;;;;;;3.87;0.80;;;;;;;18.40;62.10;101376.50;4988312;28;20446;-79
2021/08/03 10:02:17;;;;;;;2.87;1.53;;;;;;;18.18;65.96;101394.47;4989201;28;20526;-80
2021/08/03 10:04:46;;;;;;;2.20;1.70;;;;;;;17.84;63.74;101327.16;4990411;28;20197;-79
2021/08/03 10:07:13;;;;;;;0.90;0.90;;;;;;;17.97;65.07;101360.59;4986450;28;20438;-79
2021/08/03 10:09:39;;;;;;;4.10;3.50;;;;;;;18.48;64.54;101427.72;4986605;28;20441;-80
2021/08/03 10:12:05;;;;;;;6.23;5.63;;;;;;;18.77;63.36;101451.50;4995137;28;20437;-80
2021/08/03 10:14:30;;;;;;;1.03;0.83;;;;;;;18.11;63.31;101369.31;4989305;28;20446;-79
2021/08/03 10:16:56;;;;;;;7.50;5.80;;;;;;;18.57;64.00;101455.38;4996430;28;20185;-81
2021/08/03 10:19:27;;;;;;;5.17;4.07;;;;;;;18.51;63.91;101459.03;4988126;28;20201;-78
2021/08/03 10:22:12;;;;;;;1.73;1.57;;;;;;;18.61;63.21;101462.00;4984314;28;20477;-78
2021/08/03 10:24:41;;;;;;;2.77;2.40;;;;;;;18.50;64.15;101447.34;4986896;28;20929;-78
2021/08/03 10:27:15;;;;;;;1.33;1.23;;;;;;;18.24;63.96;101404.38;4982313;28;20480;-78
2021/08/03 10:29:52;;;;;;;2.17;1.97;;;;;;;18.65;64.08;101455.00;4985540;28;20428;-78
2021/08/03 10:32:40;;;;;;;10.40;6.50;;;;;;;18.58;62.56;101446.19;4981998;28;20461;-77
2021/08/03 10:35:15;;;;;;;6.97;5.33;;;;;;;18.50;62.35;101460.09;5000385;28;20448;-78
2021/08/03 10:37:58;;;;;;;2.90;2.60;;;;;;;18.49;64.18;101456.56;4985714;28;20441;-79
2021/08/03 10:40:49;;;;;;;2.23;0.97;;;;;;;18.51;61.98;101459.03;5002334;28;20539;-78
2021/08/03 10:43:25;;;;;;;2.10;1.03;;;;;;;18.54;62.04;101417.81;5001509;28;20446;-79
2021/08/03 10:46:06;;;;;;;7.03;3.83;;;;;;;18.72;61.66;101453.00;4990101;28;20442;-78
2021/08/03 10:48:38;;;;;;;2.07;1.57;;;;;;;18.58;60.74;101457.03;4985201;28;20452;-78
2021/08/03 10:51:15;;;;;;;0.60;0.60;;;;;;;18.44;62.51;101451.00;4981557;28;20449;-79
2021/08/03 10:54:00;;;;;;;2.30;1.47;;;;;;;18.21;61.34;101456.44;4999365;28;20528;-78
2021/08/03 10:56:26;;;;;;;1.90;1.30;;;;;;;18.00;61.80;101392.69;4982545;28;20440;-77
2021/08/03 10:59:30;;;;;;;1.53;0.80;;;;;;;18.53;62.96;101460.47;4998351;28;20591;-78
2021/08/03 11:01:56;;;;;;;1.37;1.00;;;;;;;18.39;63.91;101436.50;4999182;28;20473;-78
2021/08/03 11:04:40;;;;;;;2.33;0.83;;;;;;;18.58;60.54;101451.59;5002337;28;20449;-78
2021/08/03 11:07:24;;;;;;;1.30;1.00;;;;;;;18.67;62.11;101450.19;4984198;28;20537;-79
2021/08/03 11:09:51;;;;;;;0.90;0.70;;;;;;;18.44;61.03;101412.16;5001285;28;20936;-79
2021/08/03 11:12:34;;;;;;;1.43;1.00;;;;;;;18.68;59.38;101446.38;4994289;28;20441;-79
2021/08/03 11:15:20;;;;;;;0.70;0.60;;;;;;;18.88;58.51;101446.03;4984781;28;20971;-79
2021/08/03 11:18:01;;;;;;;1.37;0.90;;;;;;;19.05;55.77;101450.75;5002108;28;20444;-78
2021/08/03 11:20:36;;;;;;;1.03;0.90;;;;;;;19.42;57.81;101451.22;4982835;28;20464;-78
2021/08/03 11:23:13;;;;;;;2.10;1.07;;;;;;;19.57;57.40;101442.50;4986304;28;20832;-78
2021/08/03 11:25:40;;;;;;;1.77;1.30;;;;;;;18.91;58.49;101333.28;4989902;28;20448;-78
2021/08/03 11:28:22;;;;;;;2.87;2.50;;;;;;;19.83;58.15;101438.38;5000848;28;20527;-78
2021/08/03 11:30:50;;;;;;;1.00;0.73;;;;;;;19.51;55.41;101446.22;4990005;28;20600;-78
2021/08/03 11:33:18;;;;;;;1.87;1.63;;;;;;;19.41;57.25;101395.97;4987559;28;20433;-78
2021/08/03 11:35:44;;;;;;;3.03;1.77;;;;;;;19.20;56.88;101383.88;4987965;28;20483;-77
2021/08/03 11:38:19;;;;;;;3.20;1.63;;;;;;;18.91;54.73;101368.63;4985493;28;21017;-77
2021/08/03 11:40:45;;;;;;;2.33;1.00;;;;;;;19.26;55.74;101416.63;4988535;28;20210;-78
2021/08/03 11:43:11;;;;;;;0.90;0.70;;;;;;;19.17;57.68;101411.56;4994350;28;21251;-78
2021/08/03 11:45:40;;;;;;;0.90;0.80;;;;;;;19.16;61.07;101453.44;4987935;28;20446;-78
2021/08/03 11:48:20;;;;;;;1.00;0.70;;;;;;;18.47;59.44;101341.88;4992244;28;20445;-78
2021/08/03 11:50:45;;;;;;;1.13;0.73;;;;;;;19.05;60.26;101451.56;5001955;28;20465;-78
2021/08/03 11:53:19;;;;;;;1.47;0.70;;;;;;;19.05;59.07;101450.75;5002958;28;20516;-78
2021/08/03 11:55:54;;;;;;;0.83;0.60;;;;;;;19.14;59.46;101443.84;5001289;28;20607;-78
2021/08/03 11:58:22;;;;;;;1.57;0.70;;;;;;;18.49;59.31;101366.13;4986980;28;20504;-78
2021/08/03 12:00:51;;;;;;;1.63;0.90;;;;;;;19.10;55.95;101446.22;4988093;28;21027;-78
2021/08/03 12:03:30;;;;;;;1.43;0.87;;;;;;;18.72;58.44;101382.38;4996722;28;20441;-78
2021/08/03 12:05:59;;;;;;;1.13;0.90;;;;;;;18.77;58.89;101397.97;5002494;28;20451;-77
2021/08/03 12:08:35;;;;;;;0.80;0.80;;;;;;;19.10;61.54;101439.97;4986543;28;20444;-77
2021/08/03 12:11:04;;;;;;;3.00;0.97;;;;;;;19.03;58.38;101368.59;5005191;28;20475;-77
2021/08/03 12:13:32;;;;;;;1.10;0.70;;;;;;;19.88;58.40;101435.75;4998046;28;20440;-79
2021/08/03 12:15:59;;;;;;;0.80;0.80;;;;;;;19.86;57.72;101402.50;5002675;28;20447;-78
2021/08/03 12:18:38;;;;;;;1.50;0.83;;;;;;;19.69;58.44;101399.75;4987370;28;20455;-78
2021/08/03 12:21:11;;;;;;;0.97;0.83;;;;;;;19.61;57.69;101395.53;4982215;28;20469;-80
2021/08/03 12:23:41;;;;;;;0.77;0.77;;;;;;;19.41;54.68;101378.81;5005442;28;21001;-79
2021/08/03 12:26:09;;;;;;;1.23;0.90;;;;;;;20.01;52.20;101427.25;4994109;28;20426;-77
2021/08/03 12:28:38;;;;;;;1.70;0.80;;;;;;;20.12;52.01;101443.75;4985295;28;21103;-78
2021/08/03 12:31:27;;;;;;;0.77;0.77;;;;;;;19.97;54.42;101365.38;5002694;28;20465;-78
2021/08/03 12:33:55;;;;;;;1.07;0.70;;;;;;;19.57;55.37;101336.38;4986129;28;20487;-78
2021/08/03 12:36:21;;;;;;;1.13;0.80;;;;;;;19.95;56.79;101405.63;5001626;28;20536;-78
2021/08/03 12:39:19;;;;;;;3.40;1.20;;;;;;;19.51;54.75;101373.56;4989546;28;20471;-78
2021/08/03 12:45:04;;;;;;;0.80;0.80;;;;;;;19.98;56.05;101424.19;4993426;28;20511;-78
2021/08/03 12:47:31;;;;;;;1.50;1.03;;;;;;;19.06;53.07;101351.78;5009532;28;20441;-78
2021/08/03 12:50:06;;;;;;;2.70;1.03;;;;;;;19.40;53.44;101417.97;4995555;28;20473;-77
2021/08/03 12:52:31;;;;;;;1.97;0.80;;;;;;;19.02;54.80;101332.44;4994084;28;20457;-78
2021/08/03 12:55:25;;;;;;;2.60;1.23;;;;;;;19.21;54.82;101319.47;4986696;28;20441;-79
2021/08/03 12:57:56;;;;;;;0.80;0.80;;;;;;;20.02;54.59;101409.84;4983379;28;20694;-78
2021/08/03 13:00:36;;;;;;;1.20;0.73;;;;;;;19.80;55.99;101420.63;5001252;28;20473;-78
2021/08/03 13:03:04;;;;;;;0.97;0.90;;;;;;;19.50;58.05;101410.00;4980650;28;20920;-78
2021/08/03 13:05:30;;;;;;;1.10;1.00;;;;;;;19.18;57.32;101368.91;5000228;28;20449;-78
2021/08/03 13:07:58;;;;;;;1.17;0.70;;;;;;;19.26;57.51;101349.44;4995229;28;20453;-78
2021/08/03 13:10:24;;;;;;;1.17;0.83;;;;;;;19.62;56.35;101418.94;4987128;28;20207;-78
2021/08/03 13:12:51;;;;;;;1.00;0.90;;;;;;;19.13;57.47;101375.06;4988348;28;20448;-78
2021/08/03 13:15:17;;;;;;;1.40;0.83;;;;;;;19.63;57.36;101411.59;5002121;28;20488;-78
2021/08/03 13:17:43;;;;;;;0.80;0.80;;;;;;;18.67;57.33;101257.25;4992676;28;20784;-78
2021/08/03 13:20:09;;;;;;;0.70;0.70;;;;;;;19.24;56.04;101309.97;4987895;28;20507;-79
2021/08/03 13:22:35;;;;;;;0.70;0.70;;;;;;;19.68;55.39;101351.03;4985434;28;20193;-78
2021/08/03 13:25:02;;;;;;;0.80;0.73;;;;;;;19.27;56.61;101282.31;5000390;28;20549;-78
2021/08/03 13:27:27;;;;;;;1.17;0.80;;;;;;;19.94;56.08;101327.75;4983448;28;20208;-78
2021/08/03 13:29:53;;;;;;;0.73;0.60;;;;;;;20.65;54.44;101390.59;4987895;28;20894;-78
2021/08/03 13:32:18;;;;;;;0.70;0.70;;;;;;;20.22;54.32;101281.31;4983368;28;20186;-78
2021/08/03 13:34:44;;;;;;;0.90;0.80;;;;;;;20.54;55.06;101286.94;4987285;28;20229;-78
2021/08/03 13:37:09;;;;;;;1.00;0.70;;;;;;;21.29;55.17;101370.88;4989674;28;20567;-77
2021/08/03 13:39:35;;;;;;;0.70;0.70;;;;;;;21.40;54.15;101357.13;4980897;28;20636;-79
2021/08/03 13:42:00;;;;;;;1.03;0.93;;;;;;;21.42;54.17;101360.41;4980150;28;20240;-78
2021/08/03 13:44:25;;;;;;;1.07;0.80;;;;;;;21.40;52.95;101357.13;4985563;28;20192;-78
2021/08/03 13:46:51;;;;;;;1.17;0.90;;;;;;;21.65;52.36;101394.75;4981875;28;20189;-78
2021/08/03 13:49:16;;;;;;;0.93;0.70;;;;;;;20.90;51.54;101294.69;4980961;28;20561;-78
2021/08/03 13:51:42;;;;;;;1.33;0.80;;;;;;;21.26;51.97;101369.50;4983066;28;20698;-78
2021/08/03 13:54:07;;;;;;;1.13;0.80;;;;;;;20.77;50.90;101285.84;4988476;28;20183;-77
2021/08/03 13:56:33;;;;;;;1.47;0.90;;;;;;;20.83;52.07;101305.78;4982595;28;20198;-79
2021/08/03 13:58:59;;;;;;;1.27;0.90;;;;;;;20.75;51.60;101334.31;4997086;28;20186;-78
2021/08/03 14:01:24;;;;;;;1.73;0.80;;;;;;;20.40;53.63;101342.03;4981397;28;20337;-78
2021/08/03 14:03:50;;;;;;;1.53;1.00;;;;;;;20.03;54.57;101348.03;4996365;28;20443;-78
2021/08/03 14:06:16;;;;;;;1.37;0.80;;;;;;;19.59;54.36;101286.09;4988112;28;20193;-77
2021/08/03 14:08:41;;;;;;;2.33;1.00;;;;;;;19.66;55.85;101294.13;4974822;28;20198;-77
2021/08/03 14:11:07;;;;;;;0.87;0.80;;;;;;;20.01;53.89;101328.41;4979329;28;20520;-77
2021/08/03 14:13:32;;;;;;;1.23;0.80;;;;;;;20.17;51.91;101383.94;4988054;28;20228;-77
2021/08/03 14:15:58;;;;;;;0.70;0.70;;;;;;;20.26;52.09;101374.25;4993307;28;20190;-77
2021/08/03 14:18:24;;;;;;;0.60;0.60;;;;;;;20.27;51.81;101273.19;4987485;28;20532;-77
2021/08/03 14:20:50;;;;;;;0.87;0.80;;;;;;;20.81;51.78;101321.56;4993805;28;20201;-77
2021/08/03 14:23:17;;;;;;;0.70;0.70;;;;;;;21.07;51.74;101346.41;4987416;28;20449;-77
2021/08/03 14:25:42;;;;;;;1.23;0.80;;;;;;;20.90;51.02;101324.66;4998094;28;20436;-77
2021/08/03 14:28:08;;;;;;;0.70;0.70;;;;;;;20.89;52.77;101328.50;4979983;28;20444;-77
2021/08/03 14:30:35;;;;;;;0.73;0.73;;;;;;;20.18;53.52;101255.66;4979330;28;20230;-77
2021/08/03 14:33:01;;;;;;;0.90;0.80;;;;;;;20.60;54.79;101394.09;4987484;28;20276;-78
2021/08/03 14:35:26;;;;;;;1.47;0.60;;;;;;;20.30;54.74;101359.03;4980809;28;20529;-78
2021/08/03 14:37:52;;;;;;;1.03;0.70;;;;;;;19.93;54.55;101302.44;4996707;28;20862;-78
2021/08/03 14:40:18;;;;;;;0.97;0.80;;;;;;;20.38;55.03;101380.41;4996879;28;20633;-78
2021/08/03 14:42:44;;;;;;;1.80;0.90;;;;;;;20.26;56.72;101377.78;4997705;28;20185;-78
2021/08/03 14:45:10;;;;;;;0.73;0.73;;;;;;;20.27;56.50;101381.34;4979629;28;20200;-78
2021/08/03 14:47:36;;;;;;;0.80;0.80;;;;;;;19.13;55.98;101225.50;4981042;28;20477;-78
2021/08/03 14:50:02;;;;;;;1.30;0.90;;;;;;;20.11;54.97;101382.19;4985980;28;20492;-78
2021/08/03 14:52:29;;;;;;;0.70;0.70;;;;;;;20.04;57.09;101368.75;4991654;28;20190;-78
2021/08/03 14:54:56;;;;;;;0.83;0.80;;;;;;;19.83;58.64;101351.28;4987532;28;20456;-78
2021/08/03 14:57:21;;;;;;;1.53;0.90;;;;;;;19.67;57.66;101314.81;4994307;28;20452;-78
2021/08/03 14:59:46;;;;;;;1.10;0.80;;;;;;;20.00;57.43;101357.53;4986776;28;20456;-77